Daly City, CA (94014)

7:58 AM PDT on August 04, 2015 (GMT -0700)
Brisbane - The Ridge | | Change Station
CLOSE
Current Station
Personal Weather Station
Location: Brisbane, CA
Elevation: 233 ft
Nearby Weather Stations

Elev 233 ft 37.69 °N, 122.41 °W | Updated 20 seconds ago

Overcast
Overcast
64.9 °F
Feels Like 64.9 °F
N
3.4
Wind Variable Wind from SSW
Gusts 4.9 mph

Today
High -- | Low -- °F
--% Chance of Precip.
Yesterday
High -- | Low -- °F
Precip. -- in
6:15 AM 8:15 PM
Waning Gibbous, 77% visible
Pressure 29.99 in
Visibility 10.0 miles
Clouds Few 1500 ft
Scattered Clouds 18000 ft
Dew Point 63 °F
Humidity 94%
Rainfall 0.00 in
Snow Depth Not available.
UV 1 out of 12
Pollen 4.90 out of 12
Air Quality Not available.
Flu Activity Not available.
METAR KSFO 041456Z 28005KT 10SM FEW015 SCT180 17/13 A2999 RMK AO2 SLP154 T01720133 51007

More Conditions Fewer Conditions

Pressure 29.99 in
Visibility 10.0 miles
Clouds Few 1500 ft
Scattered Clouds 18000 ft
Dew Point 63 °F
Humidity 94%
Rainfall 0.00 in
Snow Depth Not available.
UV 1 out of 12
Pollen 4.90 out of 12
Air Quality Not available.
Flu Activity Not available.
METAR KSFO 041456Z 28005KT 10SM FEW015 SCT180 17/13 A2999 RMK AO2 SLP154 T01720133 51007

More Conditions Fewer Conditions

10-Day Weather Forecast

×

Almanac

Astronomy

Aug. 04, 2015 Rise Set
Actual Time
Civil Twilight
Nautical Twilight
Astronomical Twilight
Moon
Length of Visible Light
Length of Day
Tomorrow will be .
, % of the Moon is Illuminated

Today's Extremes

State Highs State Lows

Community

WunderPhotos

Upload Photos

1,843,921 photos uploaded!

WunderBlogs® & News

Nearby

Air Quality

  Air Quality AQ Index Pollutant
Not available.

Snow Depth

Station Depth Elevation

Earthquake Activity

City Distance Mag. Time & Date
Minimum magnitude displayed is 2.5.

Coastal Water Temperatures

Place Temperature

Stations

Nearby Weather Stations

Station Location Temp. Windchill Dew Point Humidity Wind Precip. Elev Updated Type